sensor_id;sensor_type;location;lat;lon;timestamp;P1;durP1;ratioP1;P2;durP2;ratioP2
11524;SDS011;5819;49.648;8.330;2023-09-12T00:00:58;17.77;;;9.32;;
11524;SDS011;5819;49.648;8.330;2023-09-12T00:03:32;16.20;;;9.02;;
11524;SDS011;5819;49.648;8.330;2023-09-12T00:06:02;12.50;;;8.07;;
11524;SDS011;5819;49.648;8.330;2023-09-12T00:08:30;12.70;;;9.10;;
11524;SDS011;5819;49.648;8.330;2023-09-12T00:10:59;14.45;;;8.20;;
11524;SDS011;5819;49.648;8.330;2023-09-12T00:13:30;18.20;;;9.07;;
11524;SDS011;5819;49.648;8.330;2023-09-12T00:15:58;15.95;;;8.55;;
11524;SDS011;5819;49.648;8.330;2023-09-12T00:18:26;17.27;;;10.02;;
11524;SDS011;5819;49.648;8.330;2023-09-12T00:20:54;14.23;;;8.65;;
11524;SDS011;5819;49.648;8.330;2023-09-12T00:23:23;14.82;;;8.90;;
11524;SDS011;5819;49.648;8.330;2023-09-12T00:25:51;11.10;;;8.93;;
11524;SDS011;5819;49.648;8.330;2023-09-12T00:28:20;14.25;;;9.65;;
11524;SDS011;5819;49.648;8.330;2023-09-12T00:30:48;15.57;;;9.65;;
11524;SDS011;5819;49.648;8.330;2023-09-12T00:33:16;13.93;;;9.15;;
11524;SDS011;5819;49.648;8.330;2023-09-12T00:35:44;21.85;;;9.70;;
11524;SDS011;5819;49.648;8.330;2023-09-12T00:38:12;16.63;;;10.65;;
11524;SDS011;5819;49.648;8.330;2023-09-12T00:40:40;14.00;;;9.57;;
11524;SDS011;5819;49.648;8.330;2023-09-12T00:43:08;13.57;;;8.75;;
11524;SDS011;5819;49.648;8.330;2023-09-12T00:45:38;10.52;;;8.70;;
11524;SDS011;5819;49.648;8.330;2023-09-12T00:48:08;15.48;;;9.20;;
11524;SDS011;5819;49.648;8.330;2023-09-12T00:50:38;19.25;;;10.18;;
11524;SDS011;5819;49.648;8.330;2023-09-12T00:53:06;18.85;;;9.27;;
11524;SDS011;5819;49.648;8.330;2023-09-12T00:55:36;17.02;;;9.10;;
11524;SDS011;5819;49.648;8.330;2023-09-12T00:58:07;17.15;;;9.02;;
11524;SDS011;5819;49.648;8.330;2023-09-12T01:00:35;13.32;;;9.10;;
11524;SDS011;5819;49.648;8.330;2023-09-12T01:03:05;11.38;;;8.32;;
11524;SDS011;5819;49.648;8.330;2023-09-12T01:05:33;15.50;;;9.02;;
11524;SDS011;5819;49.648;8.330;2023-09-12T01:08:02;12.27;;;8.98;;
11524;SDS011;5819;49.648;8.330;2023-09-12T01:10:30;16.80;;;9.95;;
11524;SDS011;5819;49.648;8.330;2023-09-12T01:12:58;21.77;;;9.75;;
11524;SDS011;5819;49.648;8.330;2023-09-12T01:15:27;15.63;;;9.95;;
11524;SDS011;5819;49.648;8.330;2023-09-12T01:17:55;15.98;;;9.57;;
11524;SDS011;5819;49.648;8.330;2023-09-12T01:20:27;18.83;;;9.60;;
11524;SDS011;5819;49.648;8.330;2023-09-12T01:23:00;15.55;;;9.43;;
11524;SDS011;5819;49.648;8.330;2023-09-12T01:25:53;15.90;;;9.48;;
11524;SDS011;5819;49.648;8.330;2023-09-12T01:28:32;13.38;;;9.55;;
11524;SDS011;5819;49.648;8.330;2023-09-12T01:31:02;17.80;;;9.27;;
11524;SDS011;5819;49.648;8.330;2023-09-12T01:33:31;13.15;;;9.02;;
11524;SDS011;5819;49.648;8.330;2023-09-12T01:35:59;14.32;;;9.13;;
11524;SDS011;5819;49.648;8.330;2023-09-12T01:38:28;17.80;;;9.80;;
11524;SDS011;5819;49.648;8.330;2023-09-12T01:40:57;13.07;;;9.43;;
11524;SDS011;5819;49.648;8.330;2023-09-12T01:43:25;14.63;;;9.07;;
11524;SDS011;5819;49.648;8.330;2023-09-12T01:45:57;15.52;;;9.75;;
11524;SDS011;5819;49.648;8.330;2023-09-12T01:48:28;16.40;;;9.63;;
11524;SDS011;5819;49.648;8.330;2023-09-12T01:51:02;16.52;;;10.20;;
11524;SDS011;5819;49.648;8.330;2023-09-12T01:53:32;13.95;;;9.65;;
11524;SDS011;5819;49.648;8.330;2023-09-12T01:56:02;17.75;;;9.93;;
11524;SDS011;5819;49.648;8.330;2023-09-12T01:58:31;16.05;;;9.65;;
11524;SDS011;5819;49.648;8.330;2023-09-12T02:01:03;17.15;;;10.68;;
11524;SDS011;5819;49.648;8.330;2023-09-12T02:03:33;16.00;;;10.57;;
11524;SDS011;5819;49.648;8.330;2023-09-12T02:06:02;18.08;;;10.32;;
11524;SDS011;5819;49.648;8.330;2023-09-12T02:08:30;19.63;;;10.82;;
11524;SDS011;5819;49.648;8.330;2023-09-12T02:10:58;19.95;;;10.73;;
11524;SDS011;5819;49.648;8.330;2023-09-12T02:13:25;18.08;;;10.57;;
11524;SDS011;5819;49.648;8.330;2023-09-12T02:15:58;15.98;;;10.52;;
11524;SDS011;5819;49.648;8.330;2023-09-12T02:18:28;14.85;;;10.65;;
11524;SDS011;5819;49.648;8.330;2023-09-12T02:20:57;14.57;;;10.30;;
11524;SDS011;5819;49.648;8.330;2023-09-12T02:23:26;17.50;;;10.15;;
11524;SDS011;5819;49.648;8.330;2023-09-12T02:25:54;16.88;;;10.18;;
11524;SDS011;5819;49.648;8.330;2023-09-12T02:28:23;19.08;;;9.77;;
11524;SDS011;5819;49.648;8.330;2023-09-12T02:30:51;16.50;;;9.88;;
11524;SDS011;5819;49.648;8.330;2023-09-12T02:33:19;17.75;;;9.98;;
11524;SDS011;5819;49.648;8.330;2023-09-12T02:35:49;15.05;;;10.45;;
11524;SDS011;5819;49.648;8.330;2023-09-12T02:38:17;18.10;;;10.75;;
11524;SDS011;5819;49.648;8.330;2023-09-12T02:40:45;19.75;;;9.52;;
11524;SDS011;5819;49.648;8.330;2023-09-12T02:43:13;17.33;;;10.13;;
11524;SDS011;5819;49.648;8.330;2023-09-12T02:45:41;15.75;;;9.85;;
11524;SDS011;5819;49.648;8.330;2023-09-12T02:48:09;18.20;;;10.52;;
11524;SDS011;5819;49.648;8.330;2023-09-12T02:50:37;18.02;;;10.35;;
11524;SDS011;5819;49.648;8.330;2023-09-12T02:53:07;18.80;;;10.18;;
11524;SDS011;5819;49.648;8.330;2023-09-12T02:55:38;14.18;;;9.85;;
11524;SDS011;5819;49.648;8.330;2023-09-12T02:58:08;15.60;;;10.38;;
11524;SDS011;5819;49.648;8.330;2023-09-12T03:00:37;19.13;;;10.75;;
11524;SDS011;5819;49.648;8.330;2023-09-12T03:03:06;16.17;;;9.88;;
11524;SDS011;5819;49.648;8.330;2023-09-12T03:05:35;16.25;;;9.98;;
11524;SDS011;5819;49.648;8.330;2023-09-12T03:08:03;18.55;;;10.38;;
11524;SDS011;5819;49.648;8.330;2023-09-12T03:10:33;16.90;;;10.50;;
11524;SDS011;5819;49.648;8.330;2023-09-12T03:13:01;21.70;;;10.75;;
11524;SDS011;5819;49.648;8.330;2023-09-12T03:15:30;20.83;;;11.80;;
11524;SDS011;5819;49.648;8.330;2023-09-12T03:18:03;19.90;;;10.73;;
11524;SDS011;5819;49.648;8.330;2023-09-12T03:20:32;14.75;;;10.90;;
11524;SDS011;5819;49.648;8.330;2023-09-12T03:22:59;21.63;;;11.32;;
11524;SDS011;5819;49.648;8.330;2023-09-12T03:25:27;20.25;;;11.00;;
11524;SDS011;5819;49.648;8.330;2023-09-12T03:27:57;18.15;;;11.32;;
11524;SDS011;5819;49.648;8.330;2023-09-12T03:30:24;18.70;;;11.20;;
11524;SDS011;5819;49.648;8.330;2023-09-12T03:32:52;18.38;;;10.35;;
11524;SDS011;5819;49.648;8.330;2023-09-12T03:35:20;20.02;;;10.75;;
11524;SDS011;5819;49.648;8.330;2023-09-12T03:37:49;21.55;;;10.95;;
11524;SDS011;5819;49.648;8.330;2023-09-12T03:40:16;22.33;;;11.38;;
11524;SDS011;5819;49.648;8.330;2023-09-12T03:42:44;18.65;;;11.38;;
11524;SDS011;5819;49.648;8.330;2023-09-12T03:45:14;20.58;;;10.77;;
11524;SDS011;5819;49.648;8.330;2023-09-12T03:47:42;18.88;;;10.63;;
11524;SDS011;5819;49.648;8.330;2023-09-12T03:50:14;21.35;;;10.13;;
11524;SDS011;5819;49.648;8.330;2023-09-12T03:52:42;20.35;;;10.68;;
11524;SDS011;5819;49.648;8.330;2023-09-12T03:55:09;21.30;;;10.63;;
11524;SDS011;5819;49.648;8.330;2023-09-12T03:57:37;17.20;;;9.50;;
11524;SDS011;5819;49.648;8.330;2023-09-12T04:00:06;17.17;;;9.75;;
11524;SDS011;5819;49.648;8.330;2023-09-12T04:02:47;18.02;;;9.57;;
11524;SDS011;5819;49.648;8.330;2023-09-12T04:05:15;16.90;;;10.07;;
11524;SDS011;5819;49.648;8.330;2023-09-12T04:07:43;22.05;;;9.25;;
11524;SDS011;5819;49.648;8.330;2023-09-12T04:10:11;25.75;;;11.10;;
11524;SDS011;5819;49.648;8.330;2023-09-12T04:12:39;17.45;;;10.23;;
11524;SDS011;5819;49.648;8.330;2023-09-12T04:15:07;21.83;;;11.18;;
11524;SDS011;5819;49.648;8.330;2023-09-12T04:17:35;21.48;;;11.07;;
11524;SDS011;5819;49.648;8.330;2023-09-12T04:20:07;15.75;;;11.75;;
11524;SDS011;5819;49.648;8.330;2023-09-12T04:22:36;21.45;;;11.95;;
11524;SDS011;5819;49.648;8.330;2023-09-12T04:25:04;16.02;;;11.20;;
11524;SDS011;5819;49.648;8.330;2023-09-12T04:27:33;20.83;;;11.00;;
11524;SDS011;5819;49.648;8.330;2023-09-12T04:30:02;20.40;;;12.38;;
11524;SDS011;5819;49.648;8.330;2023-09-12T04:32:31;23.55;;;11.95;;
11524;SDS011;5819;49.648;8.330;2023-09-12T04:34:59;20.85;;;11.18;;
11524;SDS011;5819;49.648;8.330;2023-09-12T04:37:29;19.13;;;11.70;;
11524;SDS011;5819;49.648;8.330;2023-09-12T04:39:57;18.63;;;11.55;;
11524;SDS011;5819;49.648;8.330;2023-09-12T04:42:25;17.15;;;11.43;;
11524;SDS011;5819;49.648;8.330;2023-09-12T04:44:53;24.40;;;12.48;;
11524;SDS011;5819;49.648;8.330;2023-09-12T04:47:21;21.65;;;11.60;;
11524;SDS011;5819;49.648;8.330;2023-09-12T04:49:49;20.05;;;11.93;;
11524;SDS011;5819;49.648;8.330;2023-09-12T04:52:16;17.85;;;12.02;;
11524;SDS011;5819;49.648;8.330;2023-09-12T04:54:46;22.05;;;12.40;;
11524;SDS011;5819;49.648;8.330;2023-09-12T04:57:13;21.65;;;12.15;;
11524;SDS011;5819;49.648;8.330;2023-09-12T04:59:41;20.25;;;11.07;;
11524;SDS011;5819;49.648;8.330;2023-09-12T05:02:09;22.02;;;12.30;;
11524;SDS011;5819;49.648;8.330;2023-09-12T05:04:37;21.05;;;11.95;;
11524;SDS011;5819;49.648;8.330;2023-09-12T05:07:05;20.98;;;12.07;;
11524;SDS011;5819;49.648;8.330;2023-09-12T05:09:32;22.85;;;12.10;;
11524;SDS011;5819;49.648;8.330;2023-09-12T05:12:02;22.65;;;12.40;;
11524;SDS011;5819;49.648;8.330;2023-09-12T05:14:30;22.38;;;12.50;;
11524;SDS011;5819;49.648;8.330;2023-09-12T05:16:58;19.45;;;11.80;;
11524;SDS011;5819;49.648;8.330;2023-09-12T05:19:29;21.10;;;12.85;;
11524;SDS011;5819;49.648;8.330;2023-09-12T05:21:57;20.58;;;12.30;;
11524;SDS011;5819;49.648;8.330;2023-09-12T05:24:26;17.45;;;11.98;;
11524;SDS011;5819;49.648;8.330;2023-09-12T05:26:54;25.42;;;12.23;;
11524;SDS011;5819;49.648;8.330;2023-09-12T05:29:24;18.23;;;11.73;;
11524;SDS011;5819;49.648;8.330;2023-09-12T05:31:52;22.52;;;11.80;;
11524;SDS011;5819;49.648;8.330;2023-09-12T05:34:20;21.30;;;12.00;;
11524;SDS011;5819;49.648;8.330;2023-09-12T05:36:48;19.52;;;11.52;;
11524;SDS011;5819;49.648;8.330;2023-09-12T05:39:16;14.80;;;11.38;;
11524;SDS011;5819;49.648;8.330;2023-09-12T05:41:45;18.10;;;11.57;;
11524;SDS011;5819;49.648;8.330;2023-09-12T05:44:13;20.70;;;11.98;;
11524;SDS011;5819;49.648;8.330;2023-09-12T05:46:46;22.83;;;12.88;;
11524;SDS011;5819;49.648;8.330;2023-09-12T05:49:15;18.95;;;12.20;;
11524;SDS011;5819;49.648;8.330;2023-09-12T05:51:44;20.73;;;11.88;;
11524;SDS011;5819;49.648;8.330;2023-09-12T05:54:11;19.00;;;12.40;;
11524;SDS011;5819;49.648;8.330;2023-09-12T05:56:40;18.88;;;11.98;;
11524;SDS011;5819;49.648;8.330;2023-09-12T05:59:08;13.48;;;10.95;;
11524;SDS011;5819;49.648;8.330;2023-09-12T06:01:37;21.35;;;11.55;;
11524;SDS011;5819;49.648;8.330;2023-09-12T06:04:07;18.50;;;11.75;;
11524;SDS011;5819;49.648;8.330;2023-09-12T06:06:36;17.00;;;11.73;;
11524;SDS011;5819;49.648;8.330;2023-09-12T06:09:05;20.95;;;12.05;;
11524;SDS011;5819;49.648;8.330;2023-09-12T06:11:35;17.10;;;11.32;;
11524;SDS011;5819;49.648;8.330;2023-09-12T06:14:03;18.42;;;11.30;;
11524;SDS011;5819;49.648;8.330;2023-09-12T06:16:31;21.52;;;12.68;;
11524;SDS011;5819;49.648;8.330;2023-09-12T06:18:58;21.25;;;12.95;;
11524;SDS011;5819;49.648;8.330;2023-09-12T06:21:28;18.77;;;12.52;;
11524;SDS011;5819;49.648;8.330;2023-09-12T06:24:08;25.65;;;13.05;;
11524;SDS011;5819;49.648;8.330;2023-09-12T06:26:39;24.55;;;12.88;;
11524;SDS011;5819;49.648;8.330;2023-09-12T06:29:07;20.00;;;12.43;;
11524;SDS011;5819;49.648;8.330;2023-09-12T06:31:36;18.45;;;13.02;;
11524;SDS011;5819;49.648;8.330;2023-09-12T06:34:04;20.65;;;12.10;;
11524;SDS011;5819;49.648;8.330;2023-09-12T06:36:33;18.92;;;12.27;;
11524;SDS011;5819;49.648;8.330;2023-09-12T06:39:01;22.63;;;12.70;;
11524;SDS011;5819;49.648;8.330;2023-09-12T06:41:32;19.52;;;12.50;;
11524;SDS011;5819;49.648;8.330;2023-09-12T06:44:00;17.65;;;12.60;;
11524;SDS011;5819;49.648;8.330;2023-09-12T06:46:29;22.75;;;11.68;;
11524;SDS011;5819;49.648;8.330;2023-09-12T06:48:57;19.70;;;12.40;;
11524;SDS011;5819;49.648;8.330;2023-09-12T06:51:26;18.95;;;12.30;;
11524;SDS011;5819;49.648;8.330;2023-09-12T06:54:02;20.90;;;12.93;;
11524;SDS011;5819;49.648;8.330;2023-09-12T06:56:31;18.00;;;12.02;;
11524;SDS011;5819;49.648;8.330;2023-09-12T06:59:04;21.17;;;12.88;;
11524;SDS011;5819;49.648;8.330;2023-09-12T07:01:32;16.75;;;12.23;;
11524;SDS011;5819;49.648;8.330;2023-09-12T07:04:00;17.60;;;12.75;;
11524;SDS011;5819;49.648;8.330;2023-09-12T07:06:29;23.90;;;14.32;;
11524;SDS011;5819;49.648;8.330;2023-09-12T07:08:59;27.60;;;15.40;;
11524;SDS011;5819;49.648;8.330;2023-09-12T07:11:31;21.95;;;14.95;;
11524;SDS011;5819;49.648;8.330;2023-09-12T07:13:59;21.15;;;12.85;;
11524;SDS011;5819;49.648;8.330;2023-09-12T07:16:27;24.10;;;13.77;;
11524;SDS011;5819;49.648;8.330;2023-09-12T07:18:56;24.33;;;14.15;;
11524;SDS011;5819;49.648;8.330;2023-09-12T07:21:24;28.10;;;19.33;;
11524;SDS011;5819;49.648;8.330;2023-09-12T07:23:52;21.02;;;15.55;;
11524;SDS011;5819;49.648;8.330;2023-09-12T07:26:21;20.05;;;13.50;;
11524;SDS011;5819;49.648;8.330;2023-09-12T07:28:54;19.90;;;13.25;;
11524;SDS011;5819;49.648;8.330;2023-09-12T07:31:22;16.35;;;12.18;;
11524;SDS011;5819;49.648;8.330;2023-09-12T07:33:52;19.02;;;12.10;;
11524;SDS011;5819;49.648;8.330;2023-09-12T07:36:21;18.95;;;12.25;;
11524;SDS011;5819;49.648;8.330;2023-09-12T07:38:49;23.25;;;13.05;;
11524;SDS011;5819;49.648;8.330;2023-09-12T07:41:17;23.13;;;13.32;;
11524;SDS011;5819;49.648;8.330;2023-09-12T07:43:46;19.80;;;11.93;;
11524;SDS011;5819;49.648;8.330;2023-09-12T07:46:15;21.20;;;11.52;;
11524;SDS011;5819;49.648;8.330;2023-09-12T07:48:44;20.10;;;12.52;;
11524;SDS011;5819;49.648;8.330;2023-09-12T07:51:12;20.20;;;11.90;;
11524;SDS011;5819;49.648;8.330;2023-09-12T07:53:42;18.80;;;12.70;;
11524;SDS011;5819;49.648;8.330;2023-09-12T07:56:11;16.08;;;10.80;;
11524;SDS011;5819;49.648;8.330;2023-09-12T07:58:40;19.13;;;11.32;;
11524;SDS011;5819;49.648;8.330;2023-09-12T08:01:09;18.70;;;11.85;;
11524;SDS011;5819;49.648;8.330;2023-09-12T08:03:42;20.02;;;11.88;;
11524;SDS011;5819;49.648;8.330;2023-09-12T08:06:11;19.42;;;11.55;;
11524;SDS011;5819;49.648;8.330;2023-09-12T08:08:40;21.35;;;11.65;;
11524;SDS011;5819;49.648;8.330;2023-09-12T08:11:11;24.90;;;11.10;;
11524;SDS011;5819;49.648;8.330;2023-09-12T08:13:39;20.58;;;11.80;;
11524;SDS011;5819;49.648;8.330;2023-09-12T08:16:08;22.80;;;9.93;;
11524;SDS011;5819;49.648;8.330;2023-09-12T08:18:37;21.15;;;10.93;;
11524;SDS011;5819;49.648;8.330;2023-09-12T08:21:07;16.50;;;10.70;;
11524;SDS011;5819;49.648;8.330;2023-09-12T08:23:35;15.38;;;11.05;;
11524;SDS011;5819;49.648;8.330;2023-09-12T08:26:04;19.05;;;11.13;;
11524;SDS011;5819;49.648;8.330;2023-09-12T08:28:32;22.42;;;12.45;;
11524;SDS011;5819;49.648;8.330;2023-09-12T08:31:00;15.73;;;11.77;;
11524;SDS011;5819;49.648;8.330;2023-09-12T08:33:30;16.50;;;10.38;;
11524;SDS011;5819;49.648;8.330;2023-09-12T08:36:00;20.38;;;11.70;;
11524;SDS011;5819;49.648;8.330;2023-09-12T08:38:29;17.77;;;11.38;;
11524;SDS011;5819;49.648;8.330;2023-09-12T08:40:58;16.48;;;10.57;;
11524;SDS011;5819;49.648;8.330;2023-09-12T08:43:26;19.80;;;11.60;;
11524;SDS011;5819;49.648;8.330;2023-09-12T08:45:54;21.77;;;12.25;;
11524;SDS011;5819;49.648;8.330;2023-09-12T08:48:23;18.90;;;12.10;;
11524;SDS011;5819;49.648;8.330;2023-09-12T08:50:53;20.38;;;11.88;;
11524;SDS011;5819;49.648;8.330;2023-09-12T08:53:22;16.55;;;11.48;;
11524;SDS011;5819;49.648;8.330;2023-09-12T08:55:52;18.95;;;12.60;;
11524;SDS011;5819;49.648;8.330;2023-09-12T08:58:21;15.75;;;12.20;;
11524;SDS011;5819;49.648;8.330;2023-09-12T09:00:50;13.48;;;9.73;;
11524;SDS011;5819;49.648;8.330;2023-09-12T09:03:21;21.98;;;13.20;;
11524;SDS011;5819;49.648;8.330;2023-09-12T09:05:51;23.05;;;11.25;;
11524;SDS011;5819;49.648;8.330;2023-09-12T09:08:22;18.63;;;11.75;;
11524;SDS011;5819;49.648;8.330;2023-09-12T09:10:55;19.63;;;10.98;;
11524;SDS011;5819;49.648;8.330;2023-09-12T09:13:24;20.92;;;11.75;;
11524;SDS011;5819;49.648;8.330;2023-09-12T09:18:52;19.95;;;12.50;;
11524;SDS011;5819;49.648;8.330;2023-09-12T09:21:21;21.17;;;10.73;;
11524;SDS011;5819;49.648;8.330;2023-09-12T09:23:52;19.65;;;12.43;;
11524;SDS011;5819;49.648;8.330;2023-09-12T09:26:22;15.45;;;10.73;;
11524;SDS011;5819;49.648;8.330;2023-09-12T09:29:01;15.23;;;10.88;;
11524;SDS011;5819;49.648;8.330;2023-09-12T09:31:30;17.77;;;10.32;;
11524;SDS011;5819;49.648;8.330;2023-09-12T09:33:59;18.40;;;10.70;;
11524;SDS011;5819;49.648;8.330;2023-09-12T09:36:27;18.88;;;11.50;;
11524;SDS011;5819;49.648;8.330;2023-09-12T09:38:56;15.55;;;11.60;;
11524;SDS011;5819;49.648;8.330;2023-09-12T09:41:27;13.43;;;9.82;;
11524;SDS011;5819;49.648;8.330;2023-09-12T09:43:55;17.85;;;10.05;;
11524;SDS011;5819;49.648;8.330;2023-09-12T09:46:23;15.23;;;10.18;;
11524;SDS011;5819;49.648;8.330;2023-09-12T09:48:51;24.80;;;10.80;;
11524;SDS011;5819;49.648;8.330;2023-09-12T09:51:20;21.30;;;11.35;;
11524;SDS011;5819;49.648;8.330;2023-09-12T09:53:50;16.48;;;11.52;;
11524;SDS011;5819;49.648;8.330;2023-09-12T09:56:18;19.77;;;10.57;;
11524;SDS011;5819;49.648;8.330;2023-09-12T09:58:48;16.08;;;10.23;;
11524;SDS011;5819;49.648;8.330;2023-09-12T10:01:18;16.02;;;10.10;;
11524;SDS011;5819;49.648;8.330;2023-09-12T10:03:47;17.08;;;10.40;;
11524;SDS011;5819;49.648;8.330;2023-09-12T10:06:17;17.08;;;10.75;;
11524;SDS011;5819;49.648;8.330;2023-09-12T10:08:46;20.48;;;10.13;;
11524;SDS011;5819;49.648;8.330;2023-09-12T10:11:18;15.00;;;10.00;;
11524;SDS011;5819;49.648;8.330;2023-09-12T10:13:53;14.95;;;10.30;;
11524;SDS011;5819;49.648;8.330;2023-09-12T10:16:22;15.80;;;10.00;;
11524;SDS011;5819;49.648;8.330;2023-09-12T10:18:55;19.20;;;9.88;;
11524;SDS011;5819;49.648;8.330;2023-09-12T10:21:28;13.27;;;9.05;;
11524;SDS011;5819;49.648;8.330;2023-09-12T10:23:58;17.33;;;10.25;;
11524;SDS011;5819;49.648;8.330;2023-09-12T10:26:27;11.98;;;9.02;;
11524;SDS011;5819;49.648;8.330;2023-09-12T10:28:59;16.95;;;10.05;;
11524;SDS011;5819;49.648;8.330;2023-09-12T10:31:30;15.30;;;9.18;;
11524;SDS011;5819;49.648;8.330;2023-09-12T10:33:59;13.65;;;8.88;;
11524;SDS011;5819;49.648;8.330;2023-09-12T10:36:30;12.30;;;9.25;;
11524;SDS011;5819;49.648;8.330;2023-09-12T10:38:58;14.35;;;9.85;;
11524;SDS011;5819;49.648;8.330;2023-09-12T10:41:27;15.43;;;9.13;;
11524;SDS011;5819;49.648;8.330;2023-09-12T10:43:57;12.63;;;9.27;;
11524;SDS011;5819;49.648;8.330;2023-09-12T10:46:27;13.32;;;9.43;;
11524;SDS011;5819;49.648;8.330;2023-09-12T10:48:55;17.80;;;9.38;;
11524;SDS011;5819;49.648;8.330;2023-09-12T10:51:24;13.98;;;9.07;;
11524;SDS011;5819;49.648;8.330;2023-09-12T10:53:52;16.48;;;10.43;;
11524;SDS011;5819;49.648;8.330;2023-09-12T10:56:20;10.80;;;9.00;;
11524;SDS011;5819;49.648;8.330;2023-09-12T10:59:08;15.35;;;9.85;;
11524;SDS011;5819;49.648;8.330;2023-09-12T11:01:40;12.85;;;8.73;;
11524;SDS011;5819;49.648;8.330;2023-09-12T11:10:15;14.13;;;9.63;;
11524;SDS011;5819;49.648;8.330;2023-09-12T11:12:45;16.98;;;9.40;;
11524;SDS011;5819;49.648;8.330;2023-09-12T11:15:13;13.65;;;9.30;;
11524;SDS011;5819;49.648;8.330;2023-09-12T11:17:43;14.55;;;8.70;;
11524;SDS011;5819;49.648;8.330;2023-09-12T11:20:12;12.93;;;9.07;;
11524;SDS011;5819;49.648;8.330;2023-09-12T11:22:42;13.90;;;8.77;;
11524;SDS011;5819;49.648;8.330;2023-09-12T11:25:15;16.35;;;9.40;;
11524;SDS011;5819;49.648;8.330;2023-09-12T11:27:45;11.82;;;8.55;;
11524;SDS011;5819;49.648;8.330;2023-09-12T11:30:30;12.70;;;9.10;;
11524;SDS011;5819;49.648;8.330;2023-09-12T11:33:02;12.93;;;8.18;;
11524;SDS011;5819;49.648;8.330;2023-09-12T11:35:36;11.82;;;8.93;;
11524;SDS011;5819;49.648;8.330;2023-09-12T11:38:09;12.80;;;7.80;;
11524;SDS011;5819;49.648;8.330;2023-09-12T11:40:42;14.68;;;8.90;;
11524;SDS011;5819;49.648;8.330;2023-09-12T11:43:19;11.07;;;8.48;;
11524;SDS011;5819;49.648;8.330;2023-09-12T11:45:48;12.45;;;7.97;;
11524;SDS011;5819;49.648;8.330;2023-09-12T11:48:19;9.68;;;7.55;;
11524;SDS011;5819;49.648;8.330;2023-09-12T11:50:51;9.57;;;7.80;;
11524;SDS011;5819;49.648;8.330;2023-09-12T11:53:21;10.30;;;8.60;;
11524;SDS011;5819;49.648;8.330;2023-09-12T11:55:52;10.02;;;7.90;;
11524;SDS011;5819;49.648;8.330;2023-09-12T11:58:21;14.75;;;8.27;;
11524;SDS011;5819;49.648;8.330;2023-09-12T12:00:49;13.73;;;8.50;;
11524;SDS011;5819;49.648;8.330;2023-09-12T12:03:22;12.85;;;8.32;;
11524;SDS011;5819;49.648;8.330;2023-09-12T12:05:51;13.73;;;8.35;;
11524;SDS011;5819;49.648;8.330;2023-09-12T12:08:21;11.93;;;8.50;;
11524;SDS011;5819;49.648;8.330;2023-09-12T12:10:52;17.40;;;9.05;;
11524;SDS011;5819;49.648;8.330;2023-09-12T12:13:21;15.65;;;8.88;;
11524;SDS011;5819;49.648;8.330;2023-09-12T12:15:50;13.35;;;8.77;;
11524;SDS011;5819;49.648;8.330;2023-09-12T12:18:19;14.10;;;9.13;;
11524;SDS011;5819;49.648;8.330;2023-09-12T12:20:49;11.25;;;8.68;;
11524;SDS011;5819;49.648;8.330;2023-09-12T12:23:17;10.45;;;8.25;;
11524;SDS011;5819;49.648;8.330;2023-09-12T12:25:45;10.65;;;8.02;;
11524;SDS011;5819;49.648;8.330;2023-09-12T12:28:13;9.98;;;7.97;;
11524;SDS011;5819;49.648;8.330;2023-09-12T12:30:43;12.93;;;8.32;;
11524;SDS011;5819;49.648;8.330;2023-09-12T12:33:13;11.80;;;8.70;;
11524;SDS011;5819;49.648;8.330;2023-09-12T12:36:03;11.00;;;8.52;;
11524;SDS011;5819;49.648;8.330;2023-09-12T12:38:35;9.23;;;7.43;;
11524;SDS011;5819;49.648;8.330;2023-09-12T12:41:21;11.98;;;7.82;;
11524;SDS011;5819;49.648;8.330;2023-09-12T12:43:51;10.88;;;8.15;;
11524;SDS011;5819;49.648;8.330;2023-09-12T12:46:20;12.38;;;9.02;;
11524;SDS011;5819;49.648;8.330;2023-09-12T12:48:49;11.25;;;8.25;;
11524;SDS011;5819;49.648;8.330;2023-09-12T12:51:21;15.90;;;7.85;;
11524;SDS011;5819;49.648;8.330;2023-09-12T12:53:50;8.23;;;7.30;;
11524;SDS011;5819;49.648;8.330;2023-09-12T12:56:20;11.63;;;8.32;;
11524;SDS011;5819;49.648;8.330;2023-09-12T12:58:50;10.75;;;7.95;;
11524;SDS011;5819;49.648;8.330;2023-09-12T13:01:19;14.98;;;7.75;;
11524;SDS011;5819;49.648;8.330;2023-09-12T13:03:48;9.35;;;7.90;;
11524;SDS011;5819;49.648;8.330;2023-09-12T13:06:17;9.32;;;7.70;;
11524;SDS011;5819;49.648;8.330;2023-09-12T13:08:47;12.93;;;8.18;;
11524;SDS011;5819;49.648;8.330;2023-09-12T13:11:17;10.93;;;7.78;;
11524;SDS011;5819;49.648;8.330;2023-09-12T13:13:46;11.13;;;7.70;;
11524;SDS011;5819;49.648;8.330;2023-09-12T13:16:15;12.55;;;7.60;;
11524;SDS011;5819;49.648;8.330;2023-09-12T13:18:44;10.60;;;7.80;;
11524;SDS011;5819;49.648;8.330;2023-09-12T13:21:13;9.15;;;7.85;;
11524;SDS011;5819;49.648;8.330;2023-09-12T13:23:43;13.27;;;7.57;;
11524;SDS011;5819;49.648;8.330;2023-09-12T13:26:13;8.32;;;7.50;;
11524;SDS011;5819;49.648;8.330;2023-09-12T13:28:43;11.70;;;7.55;;
11524;SDS011;5819;49.648;8.330;2023-09-12T13:31:12;8.85;;;7.38;;
11524;SDS011;5819;49.648;8.330;2023-09-12T13:33:41;7.53;;;6.82;;
11524;SDS011;5819;49.648;8.330;2023-09-12T13:36:13;10.75;;;7.10;;
11524;SDS011;5819;49.648;8.330;2023-09-12T13:38:44;11.55;;;7.00;;
11524;SDS011;5819;49.648;8.330;2023-09-12T13:41:16;11.57;;;6.88;;
11524;SDS011;5819;49.648;8.330;2023-09-12T13:43:45;7.93;;;7.18;;
11524;SDS011;5819;49.648;8.330;2023-09-12T13:46:13;11.43;;;7.57;;
11524;SDS011;5819;49.648;8.330;2023-09-12T13:48:44;11.15;;;7.60;;
11524;SDS011;5819;49.648;8.330;2023-09-12T13:51:16;8.40;;;6.93;;
11524;SDS011;5819;49.648;8.330;2023-09-12T13:53:45;16.98;;;7.20;;
11524;SDS011;5819;49.648;8.330;2023-09-12T13:56:14;8.82;;;7.60;;
11524;SDS011;5819;49.648;8.330;2023-09-12T13:58:44;9.88;;;8.38;;
11524;SDS011;5819;49.648;8.330;2023-09-12T14:01:13;9.50;;;7.60;;
11524;SDS011;5819;49.648;8.330;2023-09-12T14:04:00;10.57;;;7.35;;
11524;SDS011;5819;49.648;8.330;2023-09-12T14:06:29;11.50;;;7.25;;
11524;SDS011;5819;49.648;8.330;2023-09-12T14:08:59;11.40;;;8.63;;
11524;SDS011;5819;49.648;8.330;2023-09-12T14:11:28;13.00;;;7.63;;
11524;SDS011;5819;49.648;8.330;2023-09-12T14:14:04;16.27;;;8.68;;
11524;SDS011;5819;49.648;8.330;2023-09-12T14:16:42;14.32;;;12.82;;
11524;SDS011;5819;49.648;8.330;2023-09-12T14:19:15;12.55;;;8.48;;
11524;SDS011;5819;49.648;8.330;2023-09-12T14:21:44;10.32;;;8.50;;
11524;SDS011;5819;49.648;8.330;2023-09-12T14:24:15;10.65;;;8.30;;
11524;SDS011;5819;49.648;8.330;2023-09-12T14:26:47;9.73;;;7.95;;
11524;SDS011;5819;49.648;8.330;2023-09-12T14:29:19;11.73;;;8.18;;
11524;SDS011;5819;49.648;8.330;2023-09-12T14:31:48;9.50;;;8.00;;
11524;SDS011;5819;49.648;8.330;2023-09-12T14:34:24;10.52;;;8.05;;
11524;SDS011;5819;49.648;8.330;2023-09-12T14:36:54;12.65;;;8.32;;
11524;SDS011;5819;49.648;8.330;2023-09-12T14:39:24;8.93;;;8.05;;
11524;SDS011;5819;49.648;8.330;2023-09-12T14:41:52;10.57;;;8.02;;
11524;SDS011;5819;49.648;8.330;2023-09-12T14:44:23;12.02;;;8.63;;
11524;SDS011;5819;49.648;8.330;2023-09-12T14:46:52;10.07;;;8.45;;
11524;SDS011;5819;49.648;8.330;2023-09-12T14:49:20;12.45;;;8.32;;
11524;SDS011;5819;49.648;8.330;2023-09-12T14:51:49;12.32;;;8.57;;
11524;SDS011;5819;49.648;8.330;2023-09-12T14:54:18;11.32;;;8.60;;
11524;SDS011;5819;49.648;8.330;2023-09-12T14:56:49;14.20;;;7.95;;
11524;SDS011;5819;49.648;8.330;2023-09-12T14:59:18;10.07;;;8.32;;
11524;SDS011;5819;49.648;8.330;2023-09-12T15:01:48;17.00;;;10.65;;
11524;SDS011;5819;49.648;8.330;2023-09-12T15:04:18;20.30;;;16.58;;